Time;durP1;ratioP1;P1;durP2;ratioP2;P2;SDS_P1;SDS_P2;PMS_P1;PMS_P2;Temp;Humidity;BMP_temperature;BMP_pressure;BME280_temperature;BME280_humidity;BME280_pressure;Samples;Min_cycle;Max_cycle;Signal;HPM_P1;HPM_P2
2022/07/03 00:01:19;;;;;;;2.65;1.58;;;15.80;99.90;;;;;;5001880;28;21680;-40
2022/07/03 00:03:44;;;;;;;1.80;1.67;;;15.70;99.90;;;;;;5003620;28;20030;-37
2022/07/03 00:06:11;;;;;;;1.85;1.70;;;15.80;99.90;;;;;;5004674;28;20045;-40
2022/07/03 00:08:37;;;;;;;2.15;1.98;;;15.80;99.90;;;;;;5008897;28;20030;-38
2022/07/03 00:11:04;;;;;;;2.25;1.90;;;15.70;99.90;;;;;;4992294;28;20030;-40
2022/07/03 00:13:30;;;;;;;4.20;2.10;;;15.70;99.90;;;;;;5003815;28;20479;-37
2022/07/03 00:15:55;;;;;;;2.35;2.17;;;15.60;99.90;;;;;;5009276;28;20058;-39
2022/07/03 00:18:21;;;;;;;3.05;1.85;;;15.60;99.90;;;;;;5005168;28;20022;-39
2022/07/03 00:21:04;;;;;;;1.88;1.77;;;15.50;99.90;;;;;;5010779;28;20018;-40
2022/07/03 00:23:36;;;;;;;3.15;1.83;;;15.40;99.90;;;;;;4999024;28;20440;-40
2022/07/03 00:26:03;;;;;;;2.63;2.08;;;15.40;99.90;;;;;;5000538;28;20525;-39
2022/07/03 00:28:31;;;;;;;1.80;1.70;;;15.30;99.90;;;;;;5010604;28;20026;-38
2022/07/03 00:30:58;;;;;;;2.40;1.90;;;15.30;99.90;;;;;;4998020;28;20309;-40
2022/07/03 00:33:26;;;;;;;2.00;1.90;;;15.30;99.90;;;;;;5006461;28;20035;-41
2022/07/03 00:35:54;;;;;;;;;;;15.30;99.90;;;;;;5003422;28;20066;-37
2022/07/03 00:38:21;;;;;;;2.05;1.60;;;15.30;99.90;;;;;;5010222;28;19910;-39
2022/07/03 00:40:47;;;;;;;2.38;2.05;;;15.30;99.90;;;;;;5011592;28;20031;-39
2022/07/03 00:43:16;;;;;;;3.75;2.42;;;15.30;99.90;;;;;;5007962;28;20491;-40
2022/07/03 00:45:46;;;;;;;3.13;1.88;;;15.30;99.90;;;;;;5000011;28;20057;-39
2022/07/03 00:48:15;;;;;;;2.22;1.98;;;15.30;99.90;;;;;;5012002;28;20034;-40
2022/07/03 00:50:49;;;;;;;1.88;1.70;;;15.30;99.90;;;;;;5002381;28;20039;-37
2022/07/03 00:53:28;;;;;;;2.72;2.20;;;15.30;99.90;;;;;;5009648;28;20595;-39
2022/07/03 00:55:55;;;;;;;3.78;2.22;;;15.30;99.90;;;;;;5002003;28;20552;-37
2022/07/03 00:58:22;;;;;;;2.90;2.40;;;15.20;99.90;;;;;;5009413;28;20019;-37
2022/07/03 01:00:52;;;;;;;2.00;1.90;;;15.20;99.90;;;;;;5012040;28;20062;-36
2022/07/03 01:03:20;;;;;;;4.50;2.15;;;15.10;99.90;;;;;;5010292;28;20072;-37
2022/07/03 01:05:50;;;;;;;;;;;15.10;99.90;;;;;;5010123;28;20018;-37
2022/07/03 01:08:24;;;;;;;3.78;2.05;;;15.00;99.90;;;;;;5006408;28;20367;-38
2022/07/03 01:10:55;;;;;;;2.28;2.08;;;14.90;99.90;;;;;;5004919;28;20034;-39
2022/07/03 01:13:33;;;;;;;2.30;2.10;;;14.80;99.90;;;;;;5007263;28;20036;-39
2022/07/03 01:16:12;;;;;;;2.20;2.07;;;14.80;99.90;;;;;;5008683;28;20061;-39
2022/07/03 01:18:40;;;;;;;3.30;1.83;;;14.80;99.90;;;;;;5012793;28;20048;-35
2022/07/03 01:21:09;;;;;;;2.42;2.22;;;14.80;99.90;;;;;;5012013;28;20027;-36
2022/07/03 01:24:04;;;;;;;2.63;2.28;;;14.40;99.90;;;;;;5010904;28;20048;-40
2022/07/03 01:26:35;;;;;;;2.55;2.30;;;13.90;99.90;;;;;;5005731;28;20054;-37
2022/07/03 01:29:08;;;;;;;3.40;2.75;;;13.80;99.90;;;;;;5010965;28;20033;-38
2022/07/03 01:31:38;;;;;;;2.95;2.15;;;13.90;99.90;;;;;;5000411;28;20034;-37
2022/07/03 01:34:11;;;;;;;2.40;2.10;;;14.00;99.90;;;;;;5001689;28;20036;-38
2022/07/03 01:36:42;;;;;;;2.63;2.38;;;14.10;99.90;;;;;;5006386;28;20069;-40
2022/07/03 01:39:11;;;;;;;1.92;1.83;;;14.30;99.90;;;;;;5008646;28;20400;-37
2022/07/03 01:41:37;;;;;;;2.40;2.20;;;14.30;99.90;;;;;;5011499;28;20441;-37
2022/07/03 01:44:05;;;;;;;3.08;2.20;;;14.40;99.90;;;;;;5005906;28;20031;-37
2022/07/03 01:46:32;;;;;;;2.20;2.00;;;14.40;99.90;;;;;;5006877;28;20745;-36
2022/07/03 01:48:59;;;;;;;2.53;2.05;;;14.40;99.90;;;;;;5011865;28;20026;-39
2022/07/03 01:51:26;;;;;;;2.00;1.70;;;14.40;99.90;;;;;;5008315;28;20063;-37
2022/07/03 01:53:53;;;;;;;1.85;1.75;;;14.40;99.90;;;;;;5017628;28;20509;-37
2022/07/03 01:56:21;;;;;;;2.20;2.10;;;14.40;99.90;;;;;;5013023;28;20026;-36
2022/07/03 01:58:47;;;;;;;2.70;2.40;;;14.40;99.90;;;;;;5013981;28;20026;-36
2022/07/03 02:01:30;;;;;;;3.92;2.40;;;14.40;99.90;;;;;;5011473;28;20029;-38
2022/07/03 02:03:56;;;;;;;2.38;2.17;;;14.40;99.90;;;;;;5011400;28;20057;-36
2022/07/03 02:06:52;;;;;;;3.25;2.22;;;14.30;99.90;;;;;;5014816;28;20037;-38
2022/07/03 02:09:21;;;;;;;2.30;2.10;;;14.30;99.90;;;;;;5010649;28;20038;-37
2022/07/03 02:11:47;;;;;;;1.90;1.80;;;14.30;99.90;;;;;;5008743;28;20075;-37
2022/07/03 02:14:18;;;;;;;2.10;1.90;;;14.30;99.90;;;;;;5008135;28;20375;-38
2022/07/03 02:17:09;;;;;;;2.40;2.00;;;14.20;99.90;;;;;;5013682;28;20107;-38
2022/07/03 02:19:43;;;;;;;3.17;2.00;;;14.20;99.90;;;;;;5013514;28;20025;-38
2022/07/03 02:22:12;;;;;;;2.58;2.38;;;14.20;99.90;;;;;;5008084;28;20187;-38
2022/07/03 02:24:47;;;;;;;2.20;1.95;;;13.90;99.90;;;;;;5025865;28;20429;-37
2022/07/03 02:27:22;;;;;;;3.65;2.30;;;13.60;99.90;;;;;;5006609;28;20026;-38
2022/07/03 02:30:06;;;;;;;3.60;2.65;;;13.30;99.90;;;;;;5007919;28;20571;-36
2022/07/03 02:32:47;;;;;;;2.80;2.60;;;12.70;99.90;;;;;;5007977;28;20067;-37
2022/07/03 02:35:21;;;;;;;2.70;2.50;;;12.40;99.90;;;;;;5010030;28;20622;-37
2022/07/03 02:38:01;;;;;;;2.65;2.45;;;12.40;99.90;;;;;;5003540;28;20031;-40
2022/07/03 02:40:46;;;;;;;2.88;2.58;;;12.20;99.90;;;;;;5001541;28;20103;-39
2022/07/03 02:43:38;;;;;;;2.78;2.58;;;12.30;99.90;;;;;;4999445;28;20041;-39
2022/07/03 02:49:02;;;;;;;2.58;2.38;;;12.20;99.90;;;;;;5005335;28;20057;-37
2022/07/03 02:51:35;;;;;;;2.50;2.30;;;12.40;99.90;;;;;;5000833;28;20041;-37
2022/07/03 02:54:09;;;;;;;2.30;2.10;;;12.60;99.90;;;;;;5002062;28;20479;-38
2022/07/03 02:56:58;;;;;;;3.63;2.20;;;12.70;99.90;;;;;;4999319;28;20670;-37
2022/07/03 02:59:46;;;;;;;2.50;2.30;;;12.70;99.90;;;;;;5007712;28;20102;-40
2022/07/03 03:02:37;;;;;;;3.15;2.15;;;12.80;99.90;;;;;;5006899;28;20044;-40
2022/07/03 03:05:07;;;;;;;2.75;2.20;;;12.80;99.90;;;;;;5003578;28;20030;-39
2022/07/03 03:07:45;;;;;;;2.28;2.08;;;12.90;99.90;;;;;;5019797;28;20034;-37
2022/07/03 03:10:14;;;;;;;5.75;2.33;;;12.90;99.90;;;;;;5003296;28;20040;-37
2022/07/03 03:12:46;;;;;;;4.00;2.30;;;12.90;99.90;;;;;;5004722;28;20121;-39
2022/07/03 03:15:12;;;;;;;2.55;2.20;;;12.90;99.90;;;;;;5002225;28;20017;-38
2022/07/03 03:17:51;;;;;;;2.40;2.20;;;13.00;99.90;;;;;;4987534;28;20026;-36
2022/07/03 03:20:21;;;;;;;2.92;2.35;;;13.00;99.90;;;;;;5006417;28;20026;-38
2022/07/03 03:22:59;;;;;;;3.10;2.17;;;13.00;99.90;;;;;;5000755;28;20037;-36
2022/07/03 03:25:25;;;;;;;2.47;2.10;;;12.90;99.90;;;;;;5008919;28;20017;-40
2022/07/03 03:27:51;;;;;;;2.95;2.17;;;12.90;99.90;;;;;;5000828;28;20291;-40
2022/07/03 03:30:17;;;;;;;2.22;2.03;;;12.90;99.90;;;;;;5002119;28;20038;-39
2022/07/03 03:32:43;;;;;;;2.97;2.60;;;12.90;99.90;;;;;;5007184;28;20023;-38
2022/07/03 03:35:09;;;;;;;2.22;2.03;;;12.80;99.90;;;;;;5002431;28;20042;-36
2022/07/03 03:37:35;;;;;;;2.20;2.03;;;12.80;99.90;;;;;;5003105;28;20034;-39
2022/07/03 03:40:05;;;;;;;2.33;2.13;;;12.70;99.90;;;;;;4998893;28;20361;-38
2022/07/03 03:42:31;;;;;;;2.30;2.10;;;12.70;99.90;;;;;;5007630;28;20023;-37
2022/07/03 03:44:57;;;;;;;3.72;2.80;;;12.80;99.90;;;;;;5000774;28;20030;-36
2022/07/03 03:47:23;;;;;;;2.65;2.45;;;12.80;99.90;;;;;;5001419;28;20030;-37
2022/07/03 03:49:49;;;;;;;2.65;2.42;;;12.80;99.90;;;;;;5000374;28;20037;-37
2022/07/03 03:52:16;;;;;;;3.08;2.35;;;12.80;99.90;;;;;;4998054;28;20026;-37
2022/07/03 03:54:41;;;;;;;2.28;2.05;;;12.90;99.90;;;;;;5010261;28;20104;-37
2022/07/03 03:57:24;;;;;;;2.30;2.13;;;12.70;99.90;;;;;;5006488;28;20749;-39
2022/07/03 03:59:51;;;;;;;3.03;2.65;;;12.50;99.90;;;;;;5001975;28;20033;-38
2022/07/03 04:02:18;;;;;;;4.07;2.35;;;12.40;99.90;;;;;;4993022;28;20113;-38
2022/07/03 04:04:44;;;;;;;2.50;2.30;;;12.40;99.90;;;;;;5002736;28;20499;-38
2022/07/03 04:07:09;;;;;;;3.03;2.20;;;12.40;99.90;;;;;;4996293;28;20427;-37
2022/07/03 04:09:35;;;;;;;2.35;2.25;;;12.40;99.90;;;;;;4995394;28;20038;-40
2022/07/03 04:12:02;;;;;;;4.45;2.60;;;12.60;99.90;;;;;;4984604;28;20037;-38
2022/07/03 04:14:27;;;;;;;3.03;2.72;;;12.80;99.90;;;;;;4993790;28;20102;-39
2022/07/03 04:16:53;;;;;;;2.45;2.25;;;12.90;99.90;;;;;;4986162;28;20121;-38
2022/07/03 04:19:19;;;;;;;2.40;2.20;;;13.10;99.90;;;;;;4999145;28;20030;-40
2022/07/03 04:21:45;;;;;;;2.72;2.05;;;13.30;99.90;;;;;;5004538;28;20018;-40
2022/07/03 04:24:10;;;;;;;3.10;2.50;;;13.30;99.90;;;;;;5007148;28;20033;-37
2022/07/03 04:26:36;;;;;;;3.88;2.35;;;13.50;99.90;;;;;;4996066;28;20144;-40
2022/07/03 04:29:02;;;;;;;2.20;2.00;;;13.60;99.90;;;;;;5005114;28;20030;-37
2022/07/03 04:31:27;;;;;;;2.55;2.35;;;13.70;99.90;;;;;;4998498;28;20129;-40
2022/07/03 04:33:53;;;;;;;4.63;2.40;;;13.70;99.90;;;;;;4998061;28;20459;-37
2022/07/03 04:36:19;;;;;;;2.50;2.28;;;13.70;99.90;;;;;;4999913;28;20096;-38
2022/07/03 04:38:44;;;;;;;2.38;2.17;;;13.70;99.90;;;;;;5001384;28;20468;-41
2022/07/03 04:41:10;;;;;;;2.55;2.35;;;13.90;99.90;;;;;;4996257;28;20029;-38
2022/07/03 04:43:36;;;;;;;4.85;3.00;;;14.00;99.90;;;;;;4992210;28;20042;-40
2022/07/03 04:46:03;;;;;;;2.55;2.15;;;14.10;99.90;;;;;;4993125;28;20030;-38
2022/07/03 04:48:29;;;;;;;2.40;2.20;;;14.30;99.90;;;;;;4992249;28;20034;-38
2022/07/03 04:50:55;;;;;;;2.35;2.15;;;14.40;99.90;;;;;;5002148;28;20084;-41
2022/07/03 04:53:20;;;;;;;3.15;2.80;;;14.50;99.90;;;;;;4999269;28;20029;-38
2022/07/03 04:55:46;;;;;;;3.42;2.50;;;14.70;99.90;;;;;;5001309;28;20058;-38
2022/07/03 04:58:12;;;;;;;3.40;2.33;;;14.80;99.90;;;;;;5004069;28;20022;-39
2022/07/03 05:00:40;;;;;;;2.70;2.47;;;14.80;99.90;;;;;;4997147;28;20158;-37
2022/07/03 05:03:06;;;;;;;;;;;14.90;99.90;;;;;;5000302;28;20388;-38
2022/07/03 05:05:32;;;;;;;2.47;2.20;;;15.00;99.90;;;;;;4986506;28;19910;-37
2022/07/03 05:07:57;;;;;;;3.38;3.00;;;15.20;99.90;;;;;;5002634;28;20029;-41
2022/07/03 05:10:23;;;;;;;3.30;2.95;;;15.20;99.90;;;;;;5006089;28;20137;-39
2022/07/03 05:12:49;;;;;;;2.75;2.47;;;15.20;99.90;;;;;;5000782;28;20479;-38
2022/07/03 05:15:14;;;;;;;4.35;2.90;;;15.20;99.90;;;;;;4999015;28;20030;-41
2022/07/03 05:17:40;;;;;;;4.25;2.90;;;15.50;99.90;;;;;;4997916;28;20038;-38
2022/07/03 05:20:25;;;;;;;3.30;2.83;;;15.60;99.90;;;;;;4997779;28;20049;-39
2022/07/03 05:22:52;;;;;;;3.03;2.72;;;15.80;99.90;;;;;;4998715;28;20038;-40
2022/07/03 05:25:17;;;;;;;3.22;2.92;;;15.90;99.90;;;;;;5001017;28;20113;-39
2022/07/03 05:27:43;;;;;;;3.03;2.83;;;16.00;99.90;;;;;;5001172;28;20039;-38
2022/07/03 05:30:10;;;;;;;3.30;3.00;;;15.90;99.90;;;;;;5008400;28;20400;-38
2022/07/03 05:32:36;;;;;;;4.50;2.97;;;16.00;99.90;;;;;;5003700;28;20541;-37
2022/07/03 05:35:02;;;;;;;5.57;2.90;;;16.20;99.90;;;;;;5000825;28;20046;-38
2022/07/03 05:37:28;;;;;;;3.60;2.83;;;16.40;99.90;;;;;;5007126;28;20033;-40
2022/07/03 05:39:54;;;;;;;3.10;2.80;;;16.60;99.90;;;;;;5010147;28;20026;-38
2022/07/03 05:42:19;;;;;;;3.00;2.70;;;16.80;99.90;;;;;;5002815;28;20021;-38
2022/07/03 05:44:45;;;;;;;3.42;2.80;;;16.90;99.90;;;;;;5010150;28;20034;-41
2022/07/03 05:47:11;;;;;;;3.47;2.88;;;17.10;99.90;;;;;;5001910;28;20031;-38
2022/07/03 05:49:36;;;;;;;3.33;2.60;;;17.30;99.90;;;;;;5004764;28;20068;-40
2022/07/03 05:52:02;;;;;;;2.97;2.75;;;17.40;99.90;;;;;;4995980;28;20121;-40
2022/07/03 05:54:27;;;;;;;4.35;3.10;;;17.50;99.90;;;;;;4997972;28;20055;-38
2022/07/03 05:56:53;;;;;;;3.10;2.90;;;17.60;99.90;;;;;;5002570;28;20038;-38
2022/07/03 05:59:19;;;;;;;3.67;2.63;;;17.70;99.90;;;;;;5008019;28;20032;-40
2022/07/03 06:01:44;;;;;;;2.83;2.63;;;17.90;99.90;;;;;;5014436;28;20487;-40
2022/07/03 06:04:10;;;;;;;2.85;2.60;;;18.10;99.90;;;;;;4996776;28;20530;-36
2022/07/03 06:06:36;;;;;;;2.97;2.60;;;18.10;99.90;;;;;;5008009;28;20030;-40
2022/07/03 06:09:01;;;;;;;3.10;2.80;;;18.20;99.90;;;;;;5000505;28;20068;-40
2022/07/03 06:11:27;;;;;;;2.80;2.60;;;18.50;99.90;;;;;;4996564;28;20088;-39
2022/07/03 06:13:52;;;;;;;3.53;2.22;;;18.60;99.90;;;;;;4994238;28;20045;-40
2022/07/03 06:16:18;;;;;;;2.42;2.22;;;18.70;99.90;;;;;;5000280;28;20026;-39
2022/07/03 06:18:44;;;;;;;2.50;2.30;;;18.80;99.90;;;;;;5006579;28;20026;-38
2022/07/03 06:21:10;;;;;;;2.50;2.30;;;19.10;99.90;;;;;;5004605;28;20046;-36
2022/07/03 06:23:36;;;;;;;2.67;2.30;;;19.30;99.90;;;;;;5005122;28;20027;-39
2022/07/03 06:26:01;;;;;;;2.38;2.13;;;19.50;99.90;;;;;;5001478;28;20030;-39
2022/07/03 06:28:27;;;;;;;5.97;2.55;;;19.50;99.90;;;;;;5013265;28;20030;-36
2022/07/03 06:30:52;;;;;;;4.28;2.60;;;19.80;99.90;;;;;;5011918;28;20402;-39
2022/07/03 06:33:18;;;;;;;2.50;2.30;;;20.00;99.90;;;;;;5013179;28;20038;-36
2022/07/03 06:35:44;;;;;;;2.30;2.20;;;20.30;99.90;;;;;;5014652;28;20068;-37
2022/07/03 06:38:10;;;;;;;2.60;2.40;;;20.30;99.90;;;;;;5018081;28;20063;-36
2022/07/03 06:40:36;;;;;;;2.85;2.65;;;20.50;99.90;;;;;;5010869;28;20061;-38
2022/07/03 06:43:01;;;;;;;2.45;2.25;;;20.80;99.90;;;;;;5004995;28;20030;-37
2022/07/03 06:45:27;;;;;;;2.35;2.15;;;21.00;99.90;;;;;;5008007;28;20033;-37
2022/07/03 06:47:52;;;;;;;2.20;2.10;;;21.10;99.90;;;;;;5015303;28;20026;-37
2022/07/03 06:50:18;;;;;;;2.38;2.17;;;21.20;99.90;;;;;;5007862;28;20036;-37
2022/07/03 06:52:44;;;;;;;2.83;2.45;;;21.30;99.90;;;;;;5010261;28;20084;-37
2022/07/03 06:55:09;;;;;;;2.13;2.00;;;21.50;99.90;;;;;;5016874;28;20037;-38
2022/07/03 06:57:35;;;;;;;2.53;2.33;;;21.60;99.90;;;;;;5007964;28;20026;-39
2022/07/03 07:00:00;;;;;;;3.08;2.50;;;21.70;99.90;;;;;;5015921;28;20034;-38
2022/07/03 07:02:26;;;;;;;2.45;2.25;;;21.80;99.90;;;;;;5005243;28;20038;-39
2022/07/03 07:04:52;;;;;;;2.25;2.15;;;22.10;99.90;;;;;;5002851;28;20022;-36
2022/07/03 07:07:17;;;;;;;2.72;2.33;;;22.30;99.90;;;;;;5001644;28;20041;-38
2022/07/03 07:09:44;;;;;;;2.80;2.35;;;22.50;99.90;;;;;;5008239;28;20030;-40
2022/07/03 07:12:10;;;;;;;2.70;2.50;;;22.40;98.60;;;;;;5005214;28;20057;-37
2022/07/03 07:14:35;;;;;;;2.40;2.20;;;22.40;98.40;;;;;;5006935;28;20034;-37
2022/07/03 07:17:01;;;;;;;2.10;2.00;;;22.30;99.00;;;;;;5005315;28;20467;-37
2022/07/03 07:19:26;;;;;;;2.15;2.00;;;22.60;97.50;;;;;;5003135;28;20085;-36
2022/07/03 07:21:52;;;;;;;2.47;1.90;;;22.70;97.60;;;;;;5005452;28;20053;-37
2022/07/03 07:24:17;;;;;;;4.30;2.10;;;22.70;96.60;;;;;;5002904;28;20065;-37
2022/07/03 07:26:43;;;;;;;2.30;2.10;;;22.70;97.40;;;;;;5004558;28;20030;-37
2022/07/03 07:29:09;;;;;;;1.90;1.80;;;22.90;97.30;;;;;;5005154;28;20026;-38
2022/07/03 07:31:34;;;;;;;2.28;2.08;;;22.80;96.00;;;;;;5006893;28;20630;-36
2022/07/03 07:34:00;;;;;;;5.18;2.85;;;22.80;97.50;;;;;;5007436;28;20521;-37
2022/07/03 07:36:25;;;;;;;2.55;2.20;;;23.00;96.50;;;;;;5005493;28;20045;-36
2022/07/03 07:38:51;;;;;;;2.22;2.00;;;23.30;97.80;;;;;;5002532;28;20038;-36
2022/07/03 07:41:17;;;;;;;1.98;1.88;;;23.30;96.20;;;;;;5001229;28;20018;-37
2022/07/03 07:43:42;;;;;;;2.05;1.90;;;23.40;95.30;;;;;;5007952;28;20022;-40
2022/07/03 07:46:08;;;;;;;2.17;1.98;;;23.60;93.70;;;;;;4998058;28;20031;-40
2022/07/03 07:48:36;;;;;;;1.92;1.83;;;23.40;94.70;;;;;;5006564;28;20086;-37
2022/07/03 07:51:02;;;;;;;2.53;2.42;;;23.60;93.00;;;;;;5006554;28;20495;-37
2022/07/03 07:53:28;;;;;;;2.25;2.10;;;23.80;93.50;;;;;;5000258;28;20061;-37
2022/07/03 07:55:53;;;;;;;3.25;1.92;;;24.00;91.70;;;;;;4999394;28;20054;-36
2022/07/03 07:58:19;;;;;;;1.77;1.67;;;24.10;92.70;;;;;;5003901;28;20117;-37
2022/07/03 08:06:16;;;;;;;1.98;1.63;;;24.50;82.40;;;;;;4998222;28;20117;-36
2022/07/03 08:08:41;;;;;;;1.73;1.63;;;24.60;83.10;;;;;;5004168;28;20073;-39
2022/07/03 08:11:07;;;;;;;2.25;1.85;;;25.00;82.70;;;;;;4999724;28;20529;-39
2022/07/03 08:13:33;;;;;;;2.20;2.00;;;25.00;84.00;;;;;;5002644;28;20089;-39
2022/07/03 08:15:59;;;;;;;1.95;1.50;;;24.90;80.20;;;;;;5001034;28;20121;-38
2022/07/03 08:18:24;;;;;;;2.40;1.70;;;24.90;79.50;;;;;;5000543;28;20125;-39
2022/07/03 08:20:50;;;;;;;1.90;1.80;;;25.10;75.80;;;;;;5002606;28;20052;-39
2022/07/03 08:23:16;;;;;;;1.92;1.70;;;25.30;75.30;;;;;;4996393;28;20110;-37
2022/07/03 08:25:42;;;;;;;1.70;1.60;;;25.50;79.50;;;;;;4999487;28;20026;-40
2022/07/03 08:28:08;;;;;;;1.65;1.55;;;26.10;77.10;;;;;;5004928;28;20387;-40
2022/07/03 08:30:34;;;;;;;1.48;1.38;;;25.90;64.30;;;;;;4997070;28;20036;-36
2022/07/03 08:32:59;;;;;;;1.27;1.20;;;25.80;63.80;;;;;;5001726;28;20034;-40
2022/07/03 08:35:26;;;;;;;2.40;1.02;;;25.50;63.80;;;;;;5000592;28;20605;-38
2022/07/03 08:37:52;;;;;;;1.63;1.52;;;25.40;60.10;;;;;;5003724;28;20030;-37
2022/07/03 08:40:19;;;;;;;1.10;1.10;;;25.80;65.50;;;;;;5007288;28;20114;-39
2022/07/03 08:42:57;;;;;;;1.27;1.20;;;26.00;57.20;;;;;;5002955;28;20033;-38
2022/07/03 08:45:24;;;;;;;1.50;1.40;;;25.90;57.20;;;;;;5003392;28;20026;-37
2022/07/03 08:47:52;;;;;;;;;;;25.90;59.90;;;;;;5000600;28;20069;-39
2022/07/03 08:50:19;;;;;;;2.30;1.10;;;25.70;54.70;;;;;;5006992;28;19944;-40
2022/07/03 08:52:46;;;;;;;1.83;1.33;;;25.50;49.60;;;;;;5005431;28;20085;-40
2022/07/03 08:55:13;;;;;;;1.40;1.30;;;25.70;50.00;;;;;;5008075;28;20065;-40
2022/07/03 08:57:40;;;;;;;1.27;1.27;;;25.70;52.80;;;;;;5000803;28;20034;-38
2022/07/03 09:00:12;;;;;;;1.20;1.10;;;25.70;55.20;;;;;;5003726;28;20030;-36
2022/07/03 09:02:41;;;;;;;1.10;1.10;;;25.80;56.20;;;;;;5000665;28;20062;-34
2022/07/03 09:05:08;;;;;;;1.85;1.00;;;25.70;51.10;;;;;;5004072;28;20054;-38
2022/07/03 09:07:39;;;;;;;1.42;1.10;;;26.30;52.90;;;;;;4998032;28;20033;-39
2022/07/03 09:10:09;;;;;;;1.05;1.05;;;26.80;51.10;;;;;;5008266;28;20039;-39
2022/07/03 09:12:35;;;;;;;2.40;1.10;;;26.50;46.90;;;;;;5003164;28;20096;-36
2022/07/03 09:15:03;;;;;;;1.10;1.10;;;26.50;46.90;;;;;;5002706;28;20041;-39
2022/07/03 09:17:29;;;;;;;1.17;1.08;;;26.60;48.30;;;;;;5003488;28;20022;-39
2022/07/03 09:19:58;;;;;;;1.15;1.00;;;27.10;47.60;;;;;;4999993;28;20030;-38
2022/07/03 09:22:25;;;;;;;0.80;0.80;;;27.10;45.50;;;;;;5003305;28;20030;-38
2022/07/03 09:24:53;;;;;;;0.90;0.90;;;26.60;44.00;;;;;;5002102;28;20029;-37
2022/07/03 09:27:20;;;;;;;1.00;1.00;;;26.30;45.10;;;;;;5007101;28;20057;-36
2022/07/03 09:29:59;;;;;;;0.95;0.95;;;26.20;46.10;;;;;;5003759;28;20048;-39
2022/07/03 09:32:26;;;;;;;1.67;1.10;;;26.60;47.30;;;;;;5005564;28;20139;-36
2022/07/03 09:35:15;;;;;;;2.75;1.30;;;26.30;46.60;;;;;;4999370;28;20042;-38
2022/07/03 09:37:48;;;;;;;1.52;1.42;;;26.50;46.60;;;;;;5007608;28;20080;-36
2022/07/03 09:40:14;;;;;;;1.23;1.10;;;26.90;48.00;;;;;;5002329;28;20029;-37
2022/07/03 09:42:40;;;;;;;1.00;1.00;;;27.20;48.90;;;;;;5003506;28;20525;-37
2022/07/03 09:45:06;;;;;;;1.40;1.10;;;27.20;45.70;;;;;;5005100;28;20026;-36
2022/07/03 09:47:31;;;;;;;2.13;0.98;;;27.10;43.60;;;;;;5001630;28;20030;-38
2022/07/03 09:49:58;;;;;;;0.90;0.90;;;26.90;44.10;;;;;;5001001;28;20093;-39
2022/07/03 09:52:26;;;;;;;0.90;0.90;;;26.70;42.50;;;;;;5004253;28;20032;-37
2022/07/03 09:54:52;;;;;;;0.90;0.90;;;26.70;40.50;;;;;;5003546;28;20030;-39
2022/07/03 09:57:18;;;;;;;1.08;1.00;;;27.00;43.20;;;;;;4998307;28;20037;-39
2022/07/03 09:59:44;;;;;;;1.13;1.05;;;26.90;42.10;;;;;;5007537;28;20540;-35
2022/07/03 10:02:10;;;;;;;1.00;1.00;;;26.90;43.00;;;;;;4997159;28;20153;-36
2022/07/03 10:04:35;;;;;;;0.90;0.90;;;26.80;39.20;;;;;;5000902;28;20037;-37
2022/07/03 10:07:03;;;;;;;1.55;0.93;;;27.10;41.00;;;;;;5000119;28;20089;-35
2022/07/03 10:09:32;;;;;;;;;;;27.40;39.40;;;;;;5006366;28;20034;-37
2022/07/03 10:11:59;;;;;;;0.80;0.80;;;27.50;39.30;;;;;;5001954;28;19918;-37
2022/07/03 10:14:27;;;;;;;0.88;0.85;;;27.30;37.20;;;;;;5001505;28;20103;-35
2022/07/03 10:16:57;;;;;;;1.20;0.88;;;27.30;40.00;;;;;;5006937;28;20053;-34
2022/07/03 10:19:27;;;;;;;0.93;0.93;;;27.80;39.30;;;;;;5003716;28;20029;-35
2022/07/03 10:21:59;;;;;;;1.33;0.75;;;27.90;37.70;;;;;;5007397;28;20033;-36
2022/07/03 10:24:28;;;;;;;0.52;0.52;;;27.70;32.60;;;;;;5011077;28;20512;-36
2022/07/03 10:26:55;;;;;;;0.85;0.82;;;28.00;34.20;;;;;;4994578;28;20090;-36
2022/07/03 10:29:22;;;;;;;1.00;0.57;;;27.70;35.80;;;;;;5008634;28;20042;-37
2022/07/03 10:31:48;;;;;;;;;;;27.80;38.40;;;;;;5009774;28;20034;-35
2022/07/03 10:34:20;;;;;;;0.82;0.82;;;28.00;38.10;;;;;;5006718;28;19909;-35
2022/07/03 10:36:59;;;;;;;0.70;0.70;;;28.00;34.70;;;;;;5009262;28;20419;-37
2022/07/03 10:39:40;;;;;;;0.70;0.70;;;28.00;33.30;;;;;;5012339;28;20502;-37
2022/07/03 10:45:05;;;;;;;0.60;0.60;;;27.80;35.50;;;;;;5006333;28;20028;-38
2022/07/03 10:47:47;;;;;;;0.70;0.70;;;27.70;37.10;;;;;;4999654;28;20108;-35
2022/07/03 10:50:15;;;;;;;0.75;0.70;;;27.80;33.80;;;;;;5003687;28;20116;-37
2022/07/03 10:52:42;;;;;;;0.60;0.60;;;27.80;34.30;;;;;;5006808;28;20402;-35
2022/07/03 10:55:09;;;;;;;0.63;0.63;;;27.60;34.50;;;;;;5002335;28;20057;-37
2022/07/03 10:57:36;;;;;;;0.77;0.60;;;27.40;35.30;;;;;;5001190;28;20029;-39
2022/07/03 11:00:05;;;;;;;0.65;0.65;;;27.70;35.40;;;;;;5002234;28;20029;-39
2022/07/03 11:02:40;;;;;;;0.52;0.52;;;27.70;35.70;;;;;;5001639;28;20035;-38
2022/07/03 11:05:07;;;;;;;0.60;0.60;;;27.70;33.60;;;;;;5003272;28;20025;-36
2022/07/03 11:07:38;;;;;;;0.75;0.75;;;27.70;37.40;;;;;;5002656;28;20038;-39
2022/07/03 11:10:12;;;;;;;2.00;0.70;;;27.70;36.60;;;;;;5001428;28;20133;-37
2022/07/03 11:12:56;;;;;;;0.68;0.68;;;27.90;35.60;;;;;;4999933;28;20061;-40
2022/07/03 11:15:48;;;;;;;0.80;0.80;;;27.50;32.50;;;;;;5001745;28;20030;-36
2022/07/03 11:18:28;;;;;;;0.80;0.80;;;27.60;35.00;;;;;;4999907;28;20436;-36
2022/07/03 11:20:54;;;;;;;2.90;0.80;;;27.70;34.60;;;;;;5001456;28;20031;-35
2022/07/03 11:23:33;;;;;;;0.60;0.60;;;27.80;33.10;;;;;;4998251;28;20034;-39
2022/07/03 11:26:08;;;;;;;0.80;0.80;;;27.80;36.20;;;;;;5003148;28;20029;-39
2022/07/03 11:28:34;;;;;;;1.10;0.70;;;27.70;35.80;;;;;;4998049;28;20072;-38
2022/07/03 11:31:13;;;;;;;1.85;1.00;;;27.70;36.00;;;;;;5002535;28;20078;-39
2022/07/03 11:33:42;;;;;;;0.68;0.68;;;27.80;38.00;;;;;;4995843;28;20030;-39
2022/07/03 11:36:25;;;;;;;0.60;0.60;;;28.20;37.50;;;;;;5009896;28;20449;-37
2022/07/03 11:39:02;;;;;;;0.60;0.60;;;28.20;35.00;;;;;;5003019;28;20026;-35
2022/07/03 11:41:30;;;;;;;0.82;0.82;;;27.90;36.40;;;;;;5003353;28;20503;-36
2022/07/03 11:43:58;;;;;;;0.80;0.80;;;27.70;33.90;;;;;;5002359;28;20026;-36
2022/07/03 11:46:26;;;;;;;0.82;0.82;;;27.40;37.50;;;;;;5010291;28;20037;-38
2022/07/03 11:49:09;;;;;;;;;;;27.30;35.30;;;;;;5007043;28;20064;-36
2022/07/03 11:51:36;;;;;;;0.60;0.60;;;27.50;36.80;;;;;;5008128;28;19914;-36
2022/07/03 11:54:02;;;;;;;0.60;0.60;;;27.70;33.20;;;;;;5005369;28;20036;-36
2022/07/03 11:56:28;;;;;;;0.93;0.75;;;27.70;35.00;;;;;;5007201;28;20125;-34
2022/07/03 11:58:56;;;;;;;0.80;0.80;;;27.60;34.00;;;;;;5007946;28;20085;-37
2022/07/03 12:01:22;;;;;;;1.20;0.73;;;27.60;35.30;;;;;;5000927;28;20030;-36
2022/07/03 12:04:09;;;;;;;0.90;0.88;;;27.70;33.70;;;;;;5008861;28;20540;-39
2022/07/03 12:06:36;;;;;;;;;;;27.70;34.00;;;;;;5010768;28;20037;-36
2022/07/03 12:09:11;;;;;;;0.60;0.60;;;27.90;40.00;;;;;;5014103;28;19910;-38
2022/07/03 12:11:36;;;;;;;0.73;0.70;;;27.70;34.80;;;;;;4996776;28;20470;-34
2022/07/03 12:14:02;;;;;;;0.70;0.70;;;27.40;35.20;;;;;;4995333;28;20049;-35
2022/07/03 12:16:34;;;;;;;0.70;0.70;;;27.60;37.60;;;;;;5006470;28;20391;-35
2022/07/03 12:19:05;;;;;;;2.70;0.90;;;27.50;34.70;;;;;;5008544;28;20034;-35
2022/07/03 12:21:41;;;;;;;2.70;0.90;;;27.80;36.90;;;;;;5010182;28;20391;-35
2022/07/03 12:24:14;;;;;;;1.05;0.95;;;27.80;34.40;;;;;;5006610;28;20042;-36
2022/07/03 12:26:40;;;;;;;1.02;0.93;;;28.10;35.20;;;;;;5010111;28;20023;-36
2022/07/03 12:29:08;;;;;;;0.93;0.70;;;28.00;35.10;;;;;;5009404;28;20034;-37
2022/07/03 12:31:35;;;;;;;0.75;0.75;;;28.00;34.50;;;;;;5007532;28;20034;-35
2022/07/03 12:34:02;;;;;;;0.80;0.80;;;27.80;34.60;;;;;;5006696;28;20030;-37
2022/07/03 12:36:29;;;;;;;0.80;0.80;;;27.90;35.40;;;;;;5026251;28;20054;-36
2022/07/03 12:38:59;;;;;;;0.70;0.70;;;27.80;36.10;;;;;;5008529;28;20026;-38
2022/07/03 12:41:26;;;;;;;0.90;0.90;;;27.80;38.00;;;;;;5004588;28;20447;-36
2022/07/03 12:43:53;;;;;;;0.70;0.70;;;27.70;35.90;;;;;;5009080;28;20034;-35
2022/07/03 12:46:24;;;;;;;1.53;0.90;;;27.70;36.40;;;;;;5007577;28;20065;-37
2022/07/03 12:48:55;;;;;;;1.02;0.75;;;27.80;37.60;;;;;;5008116;28;20306;-35
2022/07/03 12:51:48;;;;;;;0.82;0.82;;;27.80;37.20;;;;;;5010857;28;20030;-35
2022/07/03 12:54:30;;;;;;;0.70;0.70;;;27.70;36.50;;;;;;5021566;28;20081;-37
2022/07/03 13:00:06;;;;;;;;;;;27.90;35.40;;;;;;4959906;28;20050;-35
2022/07/03 13:02:36;;;;;;;0.70;0.70;;;27.90;36.00;;;;;;5004187;28;19913;-36
2022/07/03 13:05:14;;;;;;;2.35;1.10;;;28.00;34.70;;;;;;5008513;28;20096;-38
2022/07/03 13:07:41;;;;;;;1.50;1.20;;;28.00;37.10;;;;;;5004643;28;20053;-36
2022/07/03 13:10:08;;;;;;;0.75;0.75;;;28.10;36.60;;;;;;5004342;28;20198;-37
2022/07/03 13:12:34;;;;;;;2.00;1.10;;;28.20;38.70;;;;;;5007373;28;20030;-35